createdAt,value
2019-03-03T00:00:23.222Z,14.70
2019-03-03T00:02:51.483Z,14.47
2019-03-03T00:05:19.749Z,14.47
2019-03-03T00:07:48.011Z,14.33
2019-03-03T00:10:16.300Z,13.57
2019-03-03T00:12:44.562Z,13.73
2019-03-03T00:15:13.094Z,13.40
2019-03-03T00:17:41.362Z,13.23
2019-03-03T00:20:11.662Z,12.60
2019-03-03T00:22:39.929Z,13.33
2019-03-03T00:25:10.590Z,12.90
2019-03-03T00:27:38.849Z,11.97
2019-03-03T00:30:17.886Z,11.37
2019-03-03T00:32:46.216Z,12.53
2019-03-03T00:35:14.544Z,12.63
2019-03-03T00:37:47.419Z,12.10
2019-03-03T00:40:29.539Z,11.50
2019-03-03T00:43:02.187Z,12.00
2019-03-03T00:45:41.177Z,11.80
2019-03-03T00:48:22.743Z,11.20
2019-03-03T00:51:04.403Z,11.13
2019-03-03T00:53:37.020Z,10.83
2019-03-03T00:56:06.924Z,10.57
2019-03-03T00:58:36.858Z,10.93
2019-03-03T01:01:12.967Z,10.00
2019-03-03T01:03:42.877Z,9.57
2019-03-03T01:06:27.821Z,8.83
2019-03-03T01:09:00.459Z,8.30
2019-03-03T01:11:39.107Z,8.50
2019-03-03T01:14:09.035Z,7.90
2019-03-03T01:16:44.478Z,7.90
2019-03-03T01:19:30.606Z,7.90
2019-03-03T01:22:00.504Z,7.80
2019-03-03T01:24:32.823Z,7.13
2019-03-03T01:27:01.084Z,8.00
2019-03-03T01:29:29.336Z,7.53
2019-03-03T01:31:57.601Z,7.00
2019-03-03T01:34:25.861Z,7.13
2019-03-03T01:36:54.279Z,6.87
2019-03-03T01:39:22.542Z,7.00
2019-03-03T01:41:50.794Z,7.30
2019-03-03T01:44:19.043Z,7.23
2019-03-03T01:46:47.340Z,6.30
2019-03-03T01:49:15.706Z,6.80
2019-03-03T01:51:43.970Z,6.47
2019-03-03T01:54:12.231Z,6.43
2019-03-03T01:56:40.483Z,6.80
2019-03-03T01:59:08.783Z,6.63
2019-03-03T02:01:37.031Z,6.93
2019-03-03T02:04:05.286Z,6.43
2019-03-03T02:06:33.548Z,5.53
2019-03-03T02:09:01.796Z,5.60
2019-03-03T02:11:30.059Z,5.47
2019-03-03T02:13:58.388Z,5.80
2019-03-03T02:16:26.636Z,5.10
2019-03-03T02:18:54.889Z,5.30
2019-03-03T02:21:23.137Z,5.47
2019-03-03T02:23:51.398Z,5.23
2019-03-03T02:26:19.644Z,5.33
2019-03-03T02:28:47.901Z,5.50
2019-03-03T02:31:16.159Z,5.70
2019-03-03T02:33:44.413Z,5.37
2019-03-03T02:36:12.666Z,5.43
2019-03-03T02:38:40.921Z,5.73
2019-03-03T02:41:09.179Z,5.43
2019-03-03T02:43:41.635Z,5.53
2019-03-03T02:46:09.866Z,5.30
2019-03-03T02:48:38.112Z,5.43
2019-03-03T02:51:06.365Z,5.60
2019-03-03T02:53:34.619Z,5.37
2019-03-03T02:56:02.889Z,6.03
2019-03-03T02:58:31.138Z,5.00
2019-03-03T03:01:01.023Z,5.90
2019-03-03T03:03:29.297Z,5.67
2019-03-03T03:06:15.332Z,5.97
2019-03-03T03:08:45.245Z,5.80
2019-03-03T03:11:21.396Z,6.00
2019-03-03T03:13:51.351Z,5.83
2019-03-03T03:16:30.257Z,5.70
2019-03-03T03:19:00.184Z,5.63
2019-03-03T03:21:39.188Z,5.70
2019-03-03T03:24:24.094Z,5.40
2019-03-03T03:27:02.942Z,5.47
2019-03-03T03:29:38.885Z,6.10
2019-03-03T03:32:08.786Z,5.90
2019-03-03T03:34:50.756Z,5.37
2019-03-03T03:37:26.324Z,5.37
2019-03-03T03:40:04.891Z,5.60
2019-03-03T03:42:34.787Z,5.53
2019-03-03T03:45:04.701Z,5.77
2019-03-03T03:47:46.191Z,5.83
2019-03-03T03:50:18.769Z,6.43
2019-03-03T03:52:48.661Z,6.03
2019-03-03T03:55:30.824Z,5.20
2019-03-03T03:58:06.483Z,5.27
2019-03-03T04:00:36.355Z,5.63
2019-03-03T04:03:12.023Z,5.87
2019-03-03T04:05:57.994Z,5.27
2019-03-03T04:08:33.819Z,5.40
2019-03-03T04:11:20.124Z,5.77
2019-03-03T04:13:50.016Z,6.53
2019-03-03T04:16:22.598Z,5.87
2019-03-03T04:19:10.373Z,6.03
2019-03-03T04:21:49.120Z,6.07
2019-03-03T04:24:24.956Z,5.77
2019-03-03T04:27:03.872Z,5.97
2019-03-03T04:29:33.784Z,5.40
2019-03-03T04:32:21.840Z,6.30
2019-03-03T04:34:57.411Z,6.00
2019-03-03T04:37:33.116Z,5.80
2019-03-03T04:40:11.999Z,6.13
2019-03-03T04:42:44.762Z,6.00
2019-03-03T04:45:16.335Z,6.73
2019-03-03T04:47:48.923Z,5.90
2019-03-03T04:50:27.870Z,6.60
2019-03-03T04:52:57.798Z,6.23
2019-03-03T04:55:46.133Z,6.43
2019-03-03T04:58:24.978Z,6.50
2019-03-03T05:00:57.667Z,7.40
2019-03-03T05:03:39.519Z,7.07
2019-03-03T05:06:21.231Z,7.10
2019-03-03T05:08:53.893Z,7.10
2019-03-03T05:12:04.695Z,7.13
2019-03-03T05:14:43.590Z,7.27
2019-03-03T05:17:19.211Z,8.07
2019-03-03T05:19:49.124Z,8.07
2019-03-03T05:22:17.392Z,7.70
2019-03-03T05:24:45.650Z,8.17
2019-03-03T05:27:13.912Z,7.50
2019-03-03T05:29:42.203Z,8.00
2019-03-03T05:32:10.459Z,8.30
2019-03-03T05:34:38.728Z,8.67
2019-03-03T05:37:06.988Z,8.83
2019-03-03T05:39:35.235Z,8.03
2019-03-03T05:42:03.506Z,7.57
2019-03-03T05:44:31.785Z,8.67
2019-03-03T05:47:00.059Z,8.70
2019-03-03T05:49:28.689Z,8.03
2019-03-03T05:51:56.935Z,7.83
2019-03-03T05:54:25.632Z,8.80
2019-03-03T05:56:53.976Z,8.47
2019-03-03T05:59:22.255Z,8.53
2019-03-03T06:01:50.525Z,8.50
2019-03-03T06:04:18.762Z,7.87
2019-03-03T06:06:47.024Z,7.97
2019-03-03T06:09:15.278Z,7.70
2019-03-03T06:11:43.547Z,7.83
2019-03-03T06:14:11.802Z,8.03
2019-03-03T06:16:40.060Z,7.70
2019-03-03T06:19:08.316Z,7.07
2019-03-03T06:21:36.592Z,7.07
2019-03-03T06:24:09.351Z,7.40
2019-03-03T06:26:37.600Z,6.77
2019-03-03T06:29:05.883Z,6.57
2019-03-03T06:31:34.131Z,6.03
2019-03-03T06:34:02.384Z,5.67
2019-03-03T06:36:30.637Z,6.33
2019-03-03T06:38:58.890Z,6.47
2019-03-03T06:41:27.144Z,5.77
2019-03-03T06:43:55.393Z,5.90
2019-03-03T06:46:23.684Z,5.90
2019-03-03T06:48:51.932Z,6.20
2019-03-03T06:51:20.197Z,5.60
2019-03-03T06:53:48.450Z,6.03
2019-03-03T06:56:16.702Z,5.43
2019-03-03T06:58:44.953Z,5.60
2019-03-03T07:01:13.211Z,5.63
2019-03-03T07:03:41.460Z,5.73
2019-03-03T07:06:09.715Z,5.13
2019-03-03T07:08:37.965Z,5.10
2019-03-03T07:11:06.241Z,5.53
2019-03-03T07:13:34.497Z,5.63
2019-03-03T07:16:02.748Z,5.63
2019-03-03T07:18:31.012Z,5.07
2019-03-03T07:20:59.252Z,5.70
2019-03-03T07:23:27.508Z,5.87
2019-03-03T07:25:55.761Z,5.77
2019-03-03T07:28:24.037Z,5.37
2019-03-03T07:30:52.289Z,5.57
2019-03-03T07:33:24.887Z,5.67
2019-03-03T07:35:53.143Z,5.00
2019-03-03T07:38:21.389Z,5.40
2019-03-03T07:40:49.665Z,5.37
2019-03-03T07:43:17.922Z,5.63
2019-03-03T07:45:46.178Z,5.63
2019-03-03T07:48:14.450Z,5.10
2019-03-03T07:50:42.713Z,4.60
2019-03-03T07:53:10.962Z,4.73
2019-03-03T07:55:39.212Z,4.70
2019-03-03T07:58:07.464Z,5.10
2019-03-03T08:00:35.725Z,4.60
2019-03-03T08:03:04.579Z,5.07
2019-03-03T08:05:32.833Z,4.50
2019-03-03T08:08:01.086Z,5.20
2019-03-03T08:10:29.339Z,5.77
2019-03-03T08:12:57.598Z,4.73
2019-03-03T08:15:25.844Z,4.67
2019-03-03T08:17:54.098Z,4.90
2019-03-03T08:20:22.357Z,6.10
2019-03-03T08:22:50.608Z,4.90
2019-03-03T08:25:18.862Z,5.17
2019-03-03T08:27:47.152Z,4.67
2019-03-03T08:30:16.917Z,4.70
2019-03-03T08:32:45.198Z,4.57
2019-03-03T08:35:22.439Z,4.47
2019-03-03T08:37:50.729Z,4.57
2019-03-03T08:40:18.987Z,4.27
2019-03-03T08:42:57.582Z,4.50
2019-03-03T08:45:39.274Z,4.40
2019-03-03T08:48:15.099Z,3.60
2019-03-03T08:50:47.716Z,3.90
2019-03-03T08:53:20.273Z,4.10
2019-03-03T08:55:52.931Z,3.60
2019-03-03T08:58:22.839Z,4.10
2019-03-03T09:00:52.738Z,4.10
2019-03-03T09:03:28.784Z,4.23
2019-03-03T09:06:07.705Z,3.60
2019-03-03T09:08:40.597Z,3.83
2019-03-03T09:11:28.633Z,4.10
2019-03-03T09:14:01.008Z,3.47
2019-03-03T09:16:48.307Z,4.40
2019-03-03T09:19:30.187Z,4.70
2019-03-03T09:22:18.427Z,3.50
2019-03-03T09:25:04.392Z,4.27
2019-03-03T09:27:52.542Z,4.10
2019-03-03T09:30:38.467Z,3.43
2019-03-03T09:33:14.063Z,3.53
2019-03-03T09:35:46.724Z,8.07
2019-03-03T09:38:19.393Z,3.50
2019-03-03T09:40:49.288Z,2.90
2019-03-03T09:43:21.850Z,3.77
2019-03-03T09:45:54.655Z,3.57
2019-03-03T09:48:30.437Z,4.40
2019-03-03T09:51:16.450Z,4.33
2019-03-03T09:53:46.349Z,3.13
2019-03-03T09:56:28.359Z,3.40
2019-03-03T09:59:00.917Z,4.03
2019-03-03T10:01:36.782Z,3.90
2019-03-03T10:04:12.156Z,4.27
2019-03-03T10:06:42.087Z,3.47
2019-03-03T10:09:20.704Z,3.63
2019-03-03T10:11:53.452Z,3.03
2019-03-03T10:14:41.615Z,3.03
2019-03-03T10:17:11.591Z,3.00
2019-03-03T10:19:44.095Z,3.00
2019-03-03T10:22:14.008Z,3.97
2019-03-03T10:25:00.276Z,3.50
2019-03-03T10:27:30.191Z,3.73
2019-03-03T10:30:06.354Z,5.30
2019-03-03T10:32:48.236Z,4.10
2019-03-03T10:35:20.927Z,3.20
2019-03-03T10:38:02.806Z,3.30
2019-03-03T10:40:35.648Z,3.23
2019-03-03T10:43:05.562Z,3.17
2019-03-03T10:45:35.461Z,3.83
2019-03-03T10:48:08.308Z,3.77
2019-03-03T10:50:50.498Z,3.27
2019-03-03T10:53:23.117Z,3.17
2019-03-03T10:55:53.062Z,3.53
2019-03-03T10:58:32.122Z,3.13
2019-03-03T11:01:08.006Z,3.83
2019-03-03T11:03:44.004Z,3.17
2019-03-03T11:06:20.013Z,3.80
2019-03-03T11:09:06.016Z,4.30
2019-03-03T11:11:35.941Z,3.53
2019-03-03T11:14:08.732Z,4.67
2019-03-03T11:16:53.862Z,4.07
2019-03-03T11:19:29.343Z,5.00
2019-03-03T11:22:05.255Z,4.27
2019-03-03T11:24:35.146Z,3.30
2019-03-03T11:27:13.792Z,3.70
2019-03-03T11:29:59.615Z,3.80
2019-03-03T11:32:38.572Z,3.97
2019-03-03T11:35:24.408Z,4.07
2019-03-03T11:37:57.097Z,4.10
2019-03-03T11:40:32.932Z,4.07
2019-03-03T11:43:05.495Z,3.70
2019-03-03T11:45:52.096Z,4.03
2019-03-03T11:48:37.920Z,3.93
2019-03-03T11:51:07.813Z,3.97
2019-03-03T11:53:40.450Z,3.33
2019-03-03T11:56:10.366Z,3.97
2019-03-03T11:58:40.260Z,4.03
2019-03-03T12:01:26.591Z,3.10
2019-03-03T12:04:12.860Z,3.73
2019-03-03T12:06:58.879Z,3.80
2019-03-03T12:09:28.775Z,3.53
2019-03-03T12:12:14.776Z,2.90
2019-03-03T12:14:44.717Z,3.40
2019-03-03T12:17:30.747Z,3.43
2019-03-03T12:20:12.480Z,3.40
2019-03-03T12:22:42.380Z,3.30
2019-03-03T12:25:28.771Z,3.50
2019-03-03T12:27:58.664Z,3.60
2019-03-03T12:30:28.691Z,3.83
2019-03-03T12:33:13.860Z,3.33
2019-03-03T12:35:43.758Z,3.20
2019-03-03T12:38:19.384Z,3.70
2019-03-03T12:41:01.262Z,3.20
2019-03-03T12:43:33.852Z,3.93
2019-03-03T12:46:09.471Z,3.80
2019-03-03T12:48:45.389Z,3.93
2019-03-03T12:51:15.288Z,3.37
2019-03-03T12:53:47.853Z,3.30
2019-03-03T12:56:26.518Z,3.80
2019-03-03T12:58:56.415Z,4.17
2019-03-03T13:01:28.765Z,3.70
2019-03-03T13:04:16.897Z,3.80
2019-03-03T13:06:49.256Z,3.40
2019-03-03T13:09:35.261Z,3.80
2019-03-03T13:12:05.180Z,3.37
2019-03-03T13:14:35.089Z,4.07
2019-03-03T13:17:13.771Z,3.20
2019-03-03T13:19:43.656Z,3.03
2019-03-03T13:22:29.760Z,3.70
2019-03-03T13:25:05.559Z,4.20
2019-03-03T13:27:35.488Z,3.53
2019-03-03T13:30:17.046Z,2.87
2019-03-03T13:32:49.943Z,3.60
2019-03-03T13:35:19.905Z,3.53
2019-03-03T13:37:55.732Z,3.17
2019-03-03T13:40:37.971Z,3.70
2019-03-03T13:43:06.325Z,3.20
2019-03-03T13:45:36.335Z,3.57
2019-03-03T13:48:04.596Z,3.13
2019-03-03T13:50:32.859Z,3.67
2019-03-03T13:53:01.097Z,2.93
2019-03-03T13:55:29.385Z,3.27
2019-03-03T13:57:57.627Z,3.40
2019-03-03T14:00:25.966Z,6.43
2019-03-03T14:02:54.198Z,4.43
2019-03-03T14:05:22.790Z,3.97
2019-03-03T14:07:51.048Z,3.63
2019-03-03T14:10:19.303Z,3.10
2019-03-03T14:12:47.576Z,3.73
2019-03-03T14:15:17.578Z,3.70
2019-03-03T14:17:45.917Z,4.13
2019-03-03T14:20:21.539Z,3.93
2019-03-03T14:22:50.063Z,4.33
2019-03-03T14:25:18.302Z,3.50
2019-03-03T14:27:46.597Z,3.57
2019-03-03T14:30:17.668Z,4.03
2019-03-03T14:32:45.912Z,4.00
2019-03-03T14:35:15.739Z,3.20
2019-03-03T14:37:43.988Z,3.60
2019-03-03T14:40:14.869Z,3.80
2019-03-03T14:42:43.120Z,3.30
2019-03-03T14:45:13.518Z,3.80
2019-03-03T14:47:41.773Z,3.40
2019-03-03T14:50:15.550Z,2.97
2019-03-03T14:52:44.944Z,3.37
2019-03-03T14:55:15.473Z,3.30
2019-03-03T14:57:43.719Z,3.37
2019-03-03T15:00:30.117Z,3.87
2019-03-03T15:03:00.011Z,3.30
2019-03-03T15:05:28.496Z,3.67
2019-03-03T15:07:56.753Z,3.43
2019-03-03T15:10:25.017Z,3.37
2019-03-03T15:12:53.269Z,3.30
2019-03-03T15:15:27.305Z,3.70
2019-03-03T15:17:55.559Z,3.47
2019-03-03T15:20:23.879Z,3.90
2019-03-03T15:22:52.138Z,3.70
2019-03-03T15:25:20.391Z,3.87
2019-03-03T15:27:48.671Z,3.90
2019-03-03T15:30:21.729Z,4.13
2019-03-03T15:32:49.981Z,3.37
2019-03-03T15:35:18.314Z,3.57
2019-03-03T15:37:46.744Z,3.40
2019-03-03T15:40:20.410Z,3.23
2019-03-03T15:42:48.744Z,3.10
2019-03-03T15:45:19.693Z,2.70
2019-03-03T15:47:47.959Z,3.60
2019-03-03T15:50:17.146Z,3.23
2019-03-03T15:52:45.427Z,3.00
2019-03-03T15:55:15.919Z,3.30
2019-03-03T15:57:44.196Z,3.20
2019-03-03T16:00:33.694Z,3.00
2019-03-03T16:03:01.975Z,3.43
2019-03-03T16:05:30.230Z,3.90
2019-03-03T16:07:58.482Z,3.67
2019-03-03T16:10:27.574Z,3.13
2019-03-03T16:12:55.822Z,3.07
2019-03-03T16:15:24.078Z,3.63
2019-03-03T16:17:52.400Z,3.47
2019-03-03T16:20:22.021Z,3.30
2019-03-03T16:22:50.278Z,3.37
2019-03-03T16:25:20.169Z,3.50
2019-03-03T16:27:48.428Z,3.70
2019-03-03T16:30:20.947Z,3.10
2019-03-03T16:32:49.200Z,3.50
2019-03-03T16:35:17.449Z,3.63
2019-03-03T16:37:45.726Z,3.90
2019-03-03T16:40:19.368Z,4.13
2019-03-03T16:42:47.626Z,3.90
2019-03-03T16:45:16.423Z,3.73
2019-03-03T16:47:44.670Z,4.00
2019-03-03T16:50:21.089Z,3.80
2019-03-03T16:52:49.347Z,3.67
2019-03-03T16:55:18.613Z,4.30
2019-03-03T16:57:46.890Z,4.90
2019-03-03T17:00:23.671Z,3.90
2019-03-03T17:02:51.922Z,5.90
2019-03-03T17:05:25.132Z,8.27
2019-03-03T17:07:53.956Z,5.10
2019-03-03T17:10:22.210Z,4.20
2019-03-03T17:12:50.467Z,3.90
2019-03-03T17:15:26.731Z,4.23
2019-03-03T17:17:55.049Z,5.60
2019-03-03T17:20:23.302Z,10.73
2019-03-03T17:22:51.566Z,8.87
2019-03-03T17:25:26.033Z,8.07
2019-03-03T17:27:54.297Z,12.30
2019-03-03T17:30:24.869Z,18.20
2019-03-03T17:32:53.124Z,15.40
2019-03-03T17:35:21.388Z,17.53
2019-03-03T17:37:49.647Z,13.00
2019-03-03T17:40:22.172Z,12.63
2019-03-03T17:42:50.442Z,13.27
2019-03-03T17:45:22.731Z,8.13
2019-03-03T17:47:51.233Z,6.87
2019-03-03T17:50:21.436Z,7.90
2019-03-03T17:52:49.691Z,8.43
2019-03-03T17:55:17.960Z,6.03
2019-03-03T17:57:46.210Z,7.20
2019-03-03T18:00:20.321Z,7.83
2019-03-03T18:02:48.590Z,7.80
2019-03-03T18:05:18.410Z,8.27
2019-03-03T18:07:46.716Z,7.63
2019-03-03T18:10:15.112Z,5.87
2019-03-03T18:12:43.372Z,8.33
2019-03-03T18:15:13.276Z,6.67
2019-03-03T18:17:41.536Z,8.87
2019-03-03T18:20:15.426Z,7.40
2019-03-03T18:22:43.717Z,6.87
2019-03-03T18:25:14.194Z,9.73
2019-03-03T18:27:42.491Z,6.70
2019-03-03T18:30:14.148Z,4.70
2019-03-03T18:32:42.413Z,5.10
2019-03-03T18:35:12.917Z,6.43
2019-03-03T18:37:40.738Z,5.97
2019-03-03T18:40:14.745Z,4.20
2019-03-03T18:42:43.013Z,5.03
2019-03-03T18:45:16.080Z,4.80
2019-03-03T18:47:44.344Z,4.43
2019-03-03T18:50:15.177Z,4.43
2019-03-03T18:52:43.422Z,5.00
2019-03-03T18:55:12.156Z,4.47
2019-03-03T18:57:40.524Z,5.00
2019-03-03T19:00:14.450Z,4.47
2019-03-03T19:02:42.717Z,5.50
2019-03-03T19:05:10.968Z,6.93
2019-03-03T19:07:39.237Z,6.07
2019-03-03T19:10:10.599Z,5.93
2019-03-03T19:12:38.944Z,5.53
2019-03-03T19:15:13.072Z,7.37
2019-03-03T19:17:41.324Z,6.50
2019-03-03T19:20:12.280Z,5.70
2019-03-03T19:22:40.537Z,5.33
2019-03-03T19:25:10.951Z,5.03
2019-03-03T19:27:40.880Z,5.70
2019-03-03T19:30:18.107Z,4.50
2019-03-03T19:32:48.098Z,4.37
2019-03-03T19:35:16.359Z,4.93
2019-03-03T19:37:44.612Z,3.93
2019-03-03T19:40:13.533Z,4.33
2019-03-03T19:42:41.826Z,4.00
2019-03-03T19:45:25.231Z,4.17
2019-03-03T19:47:53.528Z,3.73
2019-03-03T19:50:21.860Z,4.53
2019-03-03T19:52:50.199Z,4.07
2019-03-03T19:55:18.459Z,4.07
2019-03-03T19:57:46.710Z,3.63
2019-03-03T20:00:35.046Z,3.50
2019-03-03T20:02:57.364Z,3.80
2019-03-03T20:05:25.617Z,4.30
2019-03-03T20:07:53.911Z,4.07
2019-03-03T20:10:22.191Z,4.53
2019-03-03T20:12:50.471Z,4.57
2019-03-03T20:15:18.728Z,5.00
2019-03-03T20:17:47.581Z,4.07
2019-03-03T20:20:17.287Z,4.30
2019-03-03T20:22:45.549Z,4.03
2019-03-03T20:25:13.830Z,4.03
2019-03-03T20:27:42.453Z,4.20
2019-03-03T20:30:16.655Z,3.90
2019-03-03T20:32:44.978Z,4.00
2019-03-03T20:35:13.260Z,4.43
2019-03-03T20:37:41.511Z,4.33
2019-03-03T20:40:18.756Z,4.30
2019-03-03T20:42:47.009Z,4.13
2019-03-03T20:45:31.964Z,4.80
2019-03-03T20:48:00.222Z,4.93
2019-03-03T20:50:28.485Z,5.37
2019-03-03T20:52:56.735Z,5.23
2019-03-03T20:55:26.556Z,5.10
2019-03-03T20:57:54.813Z,4.80
2019-03-03T21:00:31.057Z,5.50
2019-03-03T21:02:59.302Z,5.03
2019-03-03T21:05:28.410Z,4.60
2019-03-03T21:07:56.676Z,5.10
2019-03-03T21:10:33.479Z,5.10
2019-03-03T21:13:01.748Z,4.60
2019-03-03T21:15:30.030Z,5.10
2019-03-03T21:17:58.279Z,5.30
2019-03-03T21:20:26.598Z,5.10
2019-03-03T21:22:54.865Z,4.97
2019-03-03T21:25:23.121Z,5.40
2019-03-03T21:27:51.389Z,5.70
2019-03-03T21:30:26.707Z,5.93
2019-03-03T21:32:54.962Z,6.70
2019-03-03T21:35:23.249Z,7.20
2019-03-03T21:37:51.475Z,6.37
2019-03-03T21:40:24.054Z,8.00
2019-03-03T21:42:52.322Z,8.33
2019-03-03T21:45:21.738Z,7.60
2019-03-03T21:47:50.039Z,6.17
2019-03-03T21:50:23.035Z,6.27
2019-03-03T21:52:51.283Z,7.00
2019-03-03T21:55:19.552Z,11.27
2019-03-03T21:57:47.803Z,8.43
2019-03-03T22:00:22.094Z,6.20
2019-03-03T22:02:50.384Z,7.03
2019-03-03T22:05:18.627Z,5.33
2019-03-03T22:07:46.896Z,6.13
2019-03-03T22:10:15.148Z,5.80
2019-03-03T22:12:43.419Z,6.37
2019-03-03T22:15:13.702Z,5.60
2019-03-03T22:17:41.976Z,4.90
2019-03-03T22:20:10.964Z,5.60
2019-03-03T22:22:39.226Z,6.00
2019-03-03T22:25:12.932Z,6.13
2019-03-03T22:27:41.221Z,5.37
2019-03-03T22:30:14.620Z,5.43
2019-03-03T22:32:42.868Z,5.40
2019-03-03T22:35:11.134Z,5.10
2019-03-03T22:37:39.378Z,5.33
2019-03-03T22:40:15.850Z,5.27
2019-03-03T22:42:44.119Z,5.37
2019-03-03T22:45:17.027Z,5.47
2019-03-03T22:47:45.284Z,4.63
2019-03-03T22:50:17.817Z,4.90
2019-03-03T22:52:46.075Z,5.00
2019-03-03T22:55:15.694Z,4.93
2019-03-03T22:57:43.945Z,4.30
2019-03-03T23:00:29.507Z,4.90
2019-03-03T23:02:57.755Z,4.40
2019-03-03T23:05:38.297Z,5.17
2019-03-03T23:08:09.822Z,5.30
2019-03-03T23:11:16.098Z,4.50
2019-03-03T23:13:47.608Z,4.40
2019-03-03T23:16:40.054Z,4.10
2019-03-03T23:19:14.237Z,4.93
2019-03-03T23:22:03.641Z,4.33
2019-03-03T23:24:43.912Z,4.20
2019-03-03T23:27:12.194Z,3.70
2019-03-03T23:29:40.545Z,4.10
2019-03-03T23:32:08.885Z,4.20
2019-03-03T23:34:37.128Z,4.50
2019-03-03T23:37:05.450Z,4.17
2019-03-03T23:39:33.738Z,4.47
2019-03-03T23:42:02.066Z,4.00
2019-03-03T23:44:30.476Z,4.33
2019-03-03T23:46:58.779Z,4.00
2019-03-03T23:49:27.042Z,3.90
2019-03-03T23:51:55.339Z,3.73
2019-03-03T23:54:23.590Z,3.93
2019-03-03T23:56:51.848Z,4.10
2019-03-03T23:59:20.115Z,3.90
